sensor_id;sensor_type;location;lat;lon;timestamp;pressure;altitude;pressure_sealevel;temperature;humidity
5283;BME280;15376;48.540;9.268;2023-05-29T00:00:44;97474.88;;;12.01;100.00
5283;BME280;15376;48.540;9.268;2023-05-29T00:03:18;97473.94;;;11.87;100.00
5283;BME280;15376;48.540;9.268;2023-05-29T00:05:44;97488.19;;;11.80;100.00
5283;BME280;15376;48.540;9.268;2023-05-29T00:08:09;97478.09;;;11.54;100.00
5283;BME280;15376;48.540;9.268;2023-05-29T00:10:34;97493.25;;;11.53;100.00
5283;BME280;15376;48.540;9.268;2023-05-29T00:13:02;97481.44;;;11.41;100.00
5283;BME280;15376;48.540;9.268;2023-05-29T00:15:28;97478.78;;;11.41;100.00
5283;BME280;15376;48.540;9.268;2023-05-29T00:17:53;97489.69;;;11.67;100.00
5283;BME280;15376;48.540;9.268;2023-05-29T00:20:18;97494.19;;;11.67;100.00
5283;BME280;15376;48.540;9.268;2023-05-29T00:22:44;97486.00;;;11.68;100.00
5283;BME280;15376;48.540;9.268;2023-05-29T00:25:09;97495.75;;;11.61;100.00
5283;BME280;15376;48.540;9.268;2023-05-29T00:27:35;97490.56;;;11.53;100.00
5283;BME280;15376;48.540;9.268;2023-05-29T00:30:01;97486.41;;;11.29;100.00
5283;BME280;15376;48.540;9.268;2023-05-29T00:32:26;97477.59;;;11.08;100.00
5283;BME280;15376;48.540;9.268;2023-05-29T00:34:55;97486.41;;;10.93;100.00
5283;BME280;15376;48.540;9.268;2023-05-29T00:37:21;97478.88;;;10.82;100.00
5283;BME280;15376;48.540;9.268;2023-05-29T00:39:47;97476.91;;;10.69;100.00
5283;BME280;15376;48.540;9.268;2023-05-29T00:42:12;97466.38;;;10.61;100.00
5283;BME280;15376;48.540;9.268;2023-05-29T00:44:38;97450.44;;;10.61;100.00
5283;BME280;15376;48.540;9.268;2023-05-29T00:47:03;97459.03;;;10.63;100.00
5283;BME280;15376;48.540;9.268;2023-05-29T00:49:29;97475.06;;;10.70;100.00
5283;BME280;15376;48.540;9.268;2023-05-29T00:51:55;97473.06;;;10.72;100.00
5283;BME280;15376;48.540;9.268;2023-05-29T00:54:30;97474.59;;;10.66;100.00
5283;BME280;15376;48.540;9.268;2023-05-29T00:56:57;97471.59;;;10.55;100.00
5283;BME280;15376;48.540;9.268;2023-05-29T00:59:26;97468.28;;;10.53;100.00
5283;BME280;15376;48.540;9.268;2023-05-29T01:01:52;97473.78;;;10.37;100.00
5283;BME280;15376;48.540;9.268;2023-05-29T01:04:19;97474.69;;;10.44;100.00
5283;BME280;15376;48.540;9.268;2023-05-29T01:06:46;97479.63;;;10.47;100.00
5283;BME280;15376;48.540;9.268;2023-05-29T01:09:11;97478.16;;;10.29;100.00
5283;BME280;15376;48.540;9.268;2023-05-29T01:11:41;97484.47;;;10.28;100.00
5283;BME280;15376;48.540;9.268;2023-05-29T01:23:03;97485.97;;;10.60;100.00
5283;BME280;15376;48.540;9.268;2023-05-29T01:28:21;97493.03;;;10.68;100.00
5283;BME280;15376;48.540;9.268;2023-05-29T01:30:53;97492.56;;;10.79;100.00
5283;BME280;15376;48.540;9.268;2023-05-29T01:33:19;97476.72;;;10.71;100.00
5283;BME280;15376;48.540;9.268;2023-05-29T01:35:45;97487.81;;;10.75;100.00
5283;BME280;15376;48.540;9.268;2023-05-29T01:38:10;97482.66;;;10.73;100.00
5283;BME280;15376;48.540;9.268;2023-05-29T01:40:36;97466.16;;;10.48;100.00
5283;BME280;15376;48.540;9.268;2023-05-29T01:43:02;97472.13;;;10.35;100.00
5283;BME280;15376;48.540;9.268;2023-05-29T01:45:28;97488.31;;;10.26;100.00
5283;BME280;15376;48.540;9.268;2023-05-29T01:47:54;97470.97;;;10.15;100.00
5283;BME280;15376;48.540;9.268;2023-05-29T01:50:20;97468.97;;;10.17;100.00
5283;BME280;15376;48.540;9.268;2023-05-29T01:52:48;97485.78;;;10.32;100.00
5283;BME280;15376;48.540;9.268;2023-05-29T01:55:13;97472.41;;;10.26;100.00
5283;BME280;15376;48.540;9.268;2023-05-29T01:57:40;97490.16;;;10.25;100.00
5283;BME280;15376;48.540;9.268;2023-05-29T02:00:07;97470.03;;;10.08;100.00
5283;BME280;15376;48.540;9.268;2023-05-29T02:02:40;97492.03;;;10.17;100.00
5283;BME280;15376;48.540;9.268;2023-05-29T02:05:07;97487.59;;;10.09;100.00
5283;BME280;15376;48.540;9.268;2023-05-29T02:07:34;97487.66;;;10.01;100.00
5283;BME280;15376;48.540;9.268;2023-05-29T02:09:59;97482.59;;;10.14;100.00
5283;BME280;15376;48.540;9.268;2023-05-29T02:12:25;97469.03;;;9.94;100.00
5283;BME280;15376;48.540;9.268;2023-05-29T02:14:50;97478.50;;;9.89;100.00
5283;BME280;15376;48.540;9.268;2023-05-29T02:17:16;97481.63;;;9.69;100.00
5283;BME280;15376;48.540;9.268;2023-05-29T02:19:41;97486.72;;;9.79;100.00
5283;BME280;15376;48.540;9.268;2023-05-29T02:22:07;97470.41;;;9.45;100.00
5283;BME280;15376;48.540;9.268;2023-05-29T02:24:32;97479.50;;;9.65;100.00
5283;BME280;15376;48.540;9.268;2023-05-29T02:26:58;97488.56;;;9.56;100.00
5283;BME280;15376;48.540;9.268;2023-05-29T02:29:23;97480.88;;;9.38;100.00
5283;BME280;15376;48.540;9.268;2023-05-29T02:31:48;97494.94;;;9.61;100.00
5283;BME280;15376;48.540;9.268;2023-05-29T02:34:14;97482.16;;;9.42;100.00
5283;BME280;15376;48.540;9.268;2023-05-29T02:36:39;97484.59;;;9.52;100.00
5283;BME280;15376;48.540;9.268;2023-05-29T02:39:05;97499.06;;;9.64;100.00
5283;BME280;15376;48.540;9.268;2023-05-29T02:41:31;97496.59;;;9.62;100.00
5283;BME280;15376;48.540;9.268;2023-05-29T02:43:56;97477.31;;;9.54;100.00
5283;BME280;15376;48.540;9.268;2023-05-29T02:46:21;97484.72;;;9.58;100.00
5283;BME280;15376;48.540;9.268;2023-05-29T02:48:47;97492.00;;;9.79;100.00
5283;BME280;15376;48.540;9.268;2023-05-29T02:51:13;97484.22;;;9.78;100.00
5283;BME280;15376;48.540;9.268;2023-05-29T02:53:39;97496.59;;;9.85;100.00
5283;BME280;15376;48.540;9.268;2023-05-29T02:56:06;97498.84;;;9.74;100.00
5283;BME280;15376;48.540;9.268;2023-05-29T02:58:33;97490.06;;;9.50;100.00
5283;BME280;15376;48.540;9.268;2023-05-29T03:01:00;97486.88;;;9.32;100.00
5283;BME280;15376;48.540;9.268;2023-05-29T03:03:27;97486.34;;;9.36;100.00
5283;BME280;15376;48.540;9.268;2023-05-29T03:05:53;97483.75;;;9.28;100.00
5283;BME280;15376;48.540;9.268;2023-05-29T03:08:18;97485.09;;;8.93;100.00
5283;BME280;15376;48.540;9.268;2023-05-29T03:10:44;97482.06;;;8.65;100.00
5283;BME280;15376;48.540;9.268;2023-05-29T03:13:10;97487.75;;;8.46;100.00
5283;BME280;15376;48.540;9.268;2023-05-29T03:15:35;97472.41;;;8.33;100.00
5283;BME280;15376;48.540;9.268;2023-05-29T03:18:00;97468.44;;;8.21;100.00
5283;BME280;15376;48.540;9.268;2023-05-29T03:20:26;97491.72;;;8.42;100.00
5283;BME280;15376;48.540;9.268;2023-05-29T03:22:51;97468.69;;;8.59;100.00
5283;BME280;15376;48.540;9.268;2023-05-29T03:25:16;97474.28;;;8.72;100.00
5283;BME280;15376;48.540;9.268;2023-05-29T03:27:42;97475.94;;;8.73;100.00
5283;BME280;15376;48.540;9.268;2023-05-29T03:30:08;97481.97;;;8.90;100.00
5283;BME280;15376;48.540;9.268;2023-05-29T03:32:34;97474.22;;;8.80;100.00
5283;BME280;15376;48.540;9.268;2023-05-29T03:35:00;97472.31;;;8.66;100.00
5283;BME280;15376;48.540;9.268;2023-05-29T03:37:31;97462.22;;;8.61;100.00
5283;BME280;15376;48.540;9.268;2023-05-29T03:39:57;97463.72;;;8.64;100.00
5283;BME280;15376;48.540;9.268;2023-05-29T03:42:22;97482.69;;;8.76;100.00
5283;BME280;15376;48.540;9.268;2023-05-29T03:44:47;97490.84;;;8.58;100.00
5283;BME280;15376;48.540;9.268;2023-05-29T03:47:13;97471.75;;;8.40;100.00
5283;BME280;15376;48.540;9.268;2023-05-29T03:49:38;97490.53;;;8.61;100.00
5283;BME280;15376;48.540;9.268;2023-05-29T03:52:04;97493.94;;;8.78;100.00
5283;BME280;15376;48.540;9.268;2023-05-29T03:54:29;97497.13;;;9.04;100.00
5283;BME280;15376;48.540;9.268;2023-05-29T03:56:54;97487.47;;;9.19;100.00
5283;BME280;15376;48.540;9.268;2023-05-29T03:59:20;97482.91;;;9.28;100.00
5283;BME280;15376;48.540;9.268;2023-05-29T04:01:46;97485.53;;;9.36;100.00
5283;BME280;15376;48.540;9.268;2023-05-29T04:04:11;97487.44;;;9.50;100.00
5283;BME280;15376;48.540;9.268;2023-05-29T04:06:36;97496.03;;;9.52;100.00
5283;BME280;15376;48.540;9.268;2023-05-29T04:09:06;97476.22;;;9.40;100.00
5283;BME280;15376;48.540;9.268;2023-05-29T04:11:32;97493.91;;;9.48;100.00
5283;BME280;15376;48.540;9.268;2023-05-29T04:14:00;97499.81;;;9.58;100.00
5283;BME280;15376;48.540;9.268;2023-05-29T04:16:25;97508.50;;;9.66;100.00
5283;BME280;15376;48.540;9.268;2023-05-29T04:18:50;97522.41;;;9.68;100.00
5283;BME280;15376;48.540;9.268;2023-05-29T04:21:16;97520.88;;;9.74;100.00
5283;BME280;15376;48.540;9.268;2023-05-29T04:23:41;97519.34;;;9.80;100.00
5283;BME280;15376;48.540;9.268;2023-05-29T04:26:06;97509.88;;;9.85;100.00
5283;BME280;15376;48.540;9.268;2023-05-29T04:28:32;97517.28;;;9.67;100.00
5283;BME280;15376;48.540;9.268;2023-05-29T04:30:57;97511.59;;;9.55;100.00
5283;BME280;15376;48.540;9.268;2023-05-29T04:33:23;97518.75;;;9.69;100.00
5283;BME280;15376;48.540;9.268;2023-05-29T04:35:49;97536.09;;;9.80;100.00
5283;BME280;15376;48.540;9.268;2023-05-29T04:38:15;97541.53;;;9.87;100.00
5283;BME280;15376;48.540;9.268;2023-05-29T04:40:42;97522.16;;;10.01;100.00
5283;BME280;15376;48.540;9.268;2023-05-29T04:43:08;97524.69;;;10.17;100.00
5283;BME280;15376;48.540;9.268;2023-05-29T04:45:46;97544.06;;;10.41;100.00
5283;BME280;15376;48.540;9.268;2023-05-29T04:48:13;97527.53;;;10.39;100.00
5283;BME280;15376;48.540;9.268;2023-05-29T04:50:38;97543.56;;;10.60;100.00
5283;BME280;15376;48.540;9.268;2023-05-29T04:53:04;97546.41;;;10.58;100.00
5283;BME280;15376;48.540;9.268;2023-05-29T04:55:29;97546.28;;;10.52;100.00
5283;BME280;15376;48.540;9.268;2023-05-29T04:57:55;97538.25;;;10.60;100.00
5283;BME280;15376;48.540;9.268;2023-05-29T05:00:20;97556.50;;;10.78;100.00
5283;BME280;15376;48.540;9.268;2023-05-29T05:02:45;97554.66;;;10.78;100.00
5283;BME280;15376;48.540;9.268;2023-05-29T05:05:12;97548.34;;;10.94;100.00
5283;BME280;15376;48.540;9.268;2023-05-29T05:07:37;97564.09;;;11.10;100.00
5283;BME280;15376;48.540;9.268;2023-05-29T05:10:03;97552.56;;;11.18;100.00
5283;BME280;15376;48.540;9.268;2023-05-29T05:12:29;97561.41;;;11.40;100.00
5283;BME280;15376;48.540;9.268;2023-05-29T05:14:54;97545.22;;;11.56;100.00
5283;BME280;15376;48.540;9.268;2023-05-29T05:17:20;97559.84;;;11.81;100.00
5283;BME280;15376;48.540;9.268;2023-05-29T05:19:45;97553.84;;;11.94;100.00
5283;BME280;15376;48.540;9.268;2023-05-29T05:22:11;97555.97;;;12.05;100.00
5283;BME280;15376;48.540;9.268;2023-05-29T05:24:36;97566.94;;;12.17;100.00
5283;BME280;15376;48.540;9.268;2023-05-29T05:27:01;97554.47;;;12.17;100.00
5283;BME280;15376;48.540;9.268;2023-05-29T05:29:30;97546.72;;;12.22;100.00
5283;BME280;15376;48.540;9.268;2023-05-29T05:31:55;97546.06;;;12.42;100.00
5283;BME280;15376;48.540;9.268;2023-05-29T05:34:21;97551.50;;;12.55;100.00
5283;BME280;15376;48.540;9.268;2023-05-29T05:36:46;97567.06;;;12.79;100.00
5283;BME280;15376;48.540;9.268;2023-05-29T05:39:11;97566.25;;;12.85;100.00
5283;BME280;15376;48.540;9.268;2023-05-29T05:41:37;97565.00;;;12.81;100.00
5283;BME280;15376;48.540;9.268;2023-05-29T05:44:02;97559.75;;;12.94;100.00
5283;BME280;15376;48.540;9.268;2023-05-29T05:46:27;97552.19;;;12.98;100.00
5283;BME280;15376;48.540;9.268;2023-05-29T05:48:53;97513.94;;;12.78;100.00
5283;BME280;15376;48.540;9.268;2023-05-29T05:51:22;97569.59;;;13.28;100.00
5283;BME280;15376;48.540;9.268;2023-05-29T05:53:47;97575.03;;;13.48;100.00
5283;BME280;15376;48.540;9.268;2023-05-29T05:56:12;97569.34;;;13.64;100.00
5283;BME280;15376;48.540;9.268;2023-05-29T05:58:38;97561.97;;;13.73;100.00
5283;BME280;15376;48.540;9.268;2023-05-29T06:01:03;97582.94;;;13.83;100.00
5283;BME280;15376;48.540;9.268;2023-05-29T06:03:29;97587.09;;;13.92;100.00
5283;BME280;15376;48.540;9.268;2023-05-29T06:05:54;97550.53;;;13.86;100.00
5283;BME280;15376;48.540;9.268;2023-05-29T06:08:20;97573.56;;;14.13;100.00
5283;BME280;15376;48.540;9.268;2023-05-29T06:10:45;97583.47;;;14.32;100.00
5283;BME280;15376;48.540;9.268;2023-05-29T06:13:11;97586.97;;;14.46;100.00
5283;BME280;15376;48.540;9.268;2023-05-29T06:15:37;97573.63;;;14.53;100.00
5283;BME280;15376;48.540;9.268;2023-05-29T06:18:02;97570.75;;;14.67;99.98
5283;BME280;15376;48.540;9.268;2023-05-29T06:20:28;97578.13;;;14.85;98.97
5283;BME280;15376;48.540;9.268;2023-05-29T06:22:56;97577.50;;;15.03;100.00
5283;BME280;15376;48.540;9.268;2023-05-29T06:25:27;97580.72;;;15.25;99.83
5283;BME280;15376;48.540;9.268;2023-05-29T06:28:02;97588.47;;;15.46;97.41
5283;BME280;15376;48.540;9.268;2023-05-29T06:30:28;97591.56;;;15.56;95.37
5283;BME280;15376;48.540;9.268;2023-05-29T06:32:53;97596.44;;;15.73;95.39
5283;BME280;15376;48.540;9.268;2023-05-29T06:35:21;97593.50;;;15.81;93.92
5283;BME280;15376;48.540;9.268;2023-05-29T06:37:55;97604.59;;;15.91;90.74
5283;BME280;15376;48.540;9.268;2023-05-29T06:40:24;97605.38;;;15.98;89.58
5283;BME280;15376;48.540;9.268;2023-05-29T06:42:52;97594.22;;;16.01;88.86
5283;BME280;15376;48.540;9.268;2023-05-29T06:45:20;97599.66;;;16.26;88.66
5283;BME280;15376;48.540;9.268;2023-05-29T06:47:45;97590.75;;;16.32;87.68
5283;BME280;15376;48.540;9.268;2023-05-29T06:50:14;97581.88;;;16.31;86.11
5283;BME280;15376;48.540;9.268;2023-05-29T06:52:39;97590.41;;;16.47;86.47
5283;BME280;15376;48.540;9.268;2023-05-29T06:55:05;97600.22;;;16.66;84.09
5283;BME280;15376;48.540;9.268;2023-05-29T06:57:31;97599.34;;;16.72;83.54
5283;BME280;15376;48.540;9.268;2023-05-29T06:59:56;97597.47;;;16.73;82.68
5283;BME280;15376;48.540;9.268;2023-05-29T07:02:21;97607.78;;;16.76;82.64
5283;BME280;15376;48.540;9.268;2023-05-29T07:04:47;97606.66;;;16.83;82.41
5283;BME280;15376;48.540;9.268;2023-05-29T07:07:12;97609.03;;;16.73;81.17
5283;BME280;15376;48.540;9.268;2023-05-29T07:09:38;97594.88;;;16.84;82.04
5283;BME280;15376;48.540;9.268;2023-05-29T07:12:05;97606.53;;;16.96;83.41
5283;BME280;15376;48.540;9.268;2023-05-29T07:14:30;97597.00;;;17.00;82.67
5283;BME280;15376;48.540;9.268;2023-05-29T07:16:56;97599.56;;;17.14;82.38
5283;BME280;15376;48.540;9.268;2023-05-29T07:19:21;97603.16;;;17.26;81.47
5283;BME280;15376;48.540;9.268;2023-05-29T07:21:46;97607.94;;;17.42;81.90
5283;BME280;15376;48.540;9.268;2023-05-29T07:24:12;97610.34;;;17.69;81.82
5283;BME280;15376;48.540;9.268;2023-05-29T07:26:37;97604.06;;;17.75;80.11
5283;BME280;15376;48.540;9.268;2023-05-29T07:29:02;97614.53;;;17.83;80.45
5283;BME280;15376;48.540;9.268;2023-05-29T07:31:28;97618.41;;;17.87;78.64
5283;BME280;15376;48.540;9.268;2023-05-29T07:33:54;97609.59;;;17.80;78.59
5283;BME280;15376;48.540;9.268;2023-05-29T07:36:19;97609.44;;;17.93;78.99
5283;BME280;15376;48.540;9.268;2023-05-29T07:38:44;97621.19;;;18.10;80.42
5283;BME280;15376;48.540;9.268;2023-05-29T07:41:10;97590.63;;;17.93;77.76
5283;BME280;15376;48.540;9.268;2023-05-29T07:43:35;97604.50;;;17.90;77.21
5283;BME280;15376;48.540;9.268;2023-05-29T07:46:00;97621.53;;;18.14;78.16
5283;BME280;15376;48.540;9.268;2023-05-29T07:48:26;97594.75;;;18.07;78.59
5283;BME280;15376;48.540;9.268;2023-05-29T07:50:51;97609.47;;;18.35;79.05
5283;BME280;15376;48.540;9.268;2023-05-29T07:53:17;97611.59;;;18.44;77.46
5283;BME280;15376;48.540;9.268;2023-05-29T07:55:42;97633.44;;;18.66;77.06
5283;BME280;15376;48.540;9.268;2023-05-29T07:58:08;97628.56;;;18.75;76.13
5283;BME280;15376;48.540;9.268;2023-05-29T08:00:36;97626.44;;;18.77;75.48
5283;BME280;15376;48.540;9.268;2023-05-29T08:03:05;97620.47;;;18.75;73.33
5283;BME280;15376;48.540;9.268;2023-05-29T08:05:31;97638.03;;;18.89;74.05
5283;BME280;15376;48.540;9.268;2023-05-29T08:07:59;97632.53;;;18.84;74.22
5283;BME280;15376;48.540;9.268;2023-05-29T08:10:24;97638.50;;;18.97;72.17
5283;BME280;15376;48.540;9.268;2023-05-29T08:12:50;97630.31;;;18.92;73.06
5283;BME280;15376;48.540;9.268;2023-05-29T08:15:17;97638.38;;;18.92;73.28
5283;BME280;15376;48.540;9.268;2023-05-29T08:17:42;97614.28;;;18.97;74.79
5283;BME280;15376;48.540;9.268;2023-05-29T08:20:08;97608.81;;;19.04;73.33
5283;BME280;15376;48.540;9.268;2023-05-29T08:22:35;97607.25;;;19.20;73.69
5283;BME280;15376;48.540;9.268;2023-05-29T08:25:00;97621.41;;;19.39;73.09
5283;BME280;15376;48.540;9.268;2023-05-29T08:27:26;97615.59;;;19.53;72.29
5283;BME280;15376;48.540;9.268;2023-05-29T08:29:51;97617.28;;;19.71;72.07
5283;BME280;15376;48.540;9.268;2023-05-29T08:32:17;97614.59;;;19.83;72.22
5283;BME280;15376;48.540;9.268;2023-05-29T08:34:49;97625.56;;;19.93;71.54
5283;BME280;15376;48.540;9.268;2023-05-29T08:37:15;97600.28;;;19.82;72.55
5283;BME280;15376;48.540;9.268;2023-05-29T08:39:41;97607.03;;;19.96;71.61
5283;BME280;15376;48.540;9.268;2023-05-29T08:42:20;97619.06;;;20.06;73.45
5283;BME280;15376;48.540;9.268;2023-05-29T08:44:47;97618.97;;;20.01;73.15
5283;BME280;15376;48.540;9.268;2023-05-29T08:47:15;97611.44;;;20.03;74.35
5283;BME280;15376;48.540;9.268;2023-05-29T08:49:45;97613.41;;;20.19;74.26
5283;BME280;15376;48.540;9.268;2023-05-29T08:52:16;97608.66;;;20.38;74.94
5283;BME280;15376;48.540;9.268;2023-05-29T08:54:42;97611.31;;;20.66;74.51
5283;BME280;15376;48.540;9.268;2023-05-29T08:57:08;97609.59;;;20.77;75.21
5283;BME280;15376;48.540;9.268;2023-05-29T08:59:35;97618.16;;;20.90;69.67
5283;BME280;15376;48.540;9.268;2023-05-29T09:02:02;97589.44;;;20.84;72.79
5283;BME280;15376;48.540;9.268;2023-05-29T09:04:28;97597.31;;;21.03;69.67
5283;BME280;15376;48.540;9.268;2023-05-29T09:06:55;97601.88;;;21.19;71.21
5283;BME280;15376;48.540;9.268;2023-05-29T09:09:21;97598.28;;;21.13;69.34
5283;BME280;15376;48.540;9.268;2023-05-29T09:11:48;97604.91;;;21.39;69.07
5283;BME280;15376;48.540;9.268;2023-05-29T09:14:37;97608.72;;;21.43;65.99
5283;BME280;15376;48.540;9.268;2023-05-29T09:17:03;97609.50;;;21.22;65.55
5283;BME280;15376;48.540;9.268;2023-05-29T09:19:29;97600.31;;;21.23;66.49
5283;BME280;15376;48.540;9.268;2023-05-29T09:22:14;97606.59;;;21.45;67.09
5283;BME280;15376;48.540;9.268;2023-05-29T09:24:40;97603.66;;;21.47;67.13
5283;BME280;15376;48.540;9.268;2023-05-29T09:27:06;97561.31;;;21.52;62.77
5283;BME280;15376;48.540;9.268;2023-05-29T09:29:44;97598.69;;;22.04;65.15
5283;BME280;15376;48.540;9.268;2023-05-29T09:32:15;97595.34;;;22.19;61.67
5283;BME280;15376;48.540;9.268;2023-05-29T09:34:44;97601.19;;;22.33;62.10
5283;BME280;15376;48.540;9.268;2023-05-29T09:37:11;97607.19;;;22.40;59.89
5283;BME280;15376;48.540;9.268;2023-05-29T09:39:49;97606.63;;;22.65;56.98
5283;BME280;15376;48.540;9.268;2023-05-29T09:42:17;97612.91;;;22.70;57.26
5283;BME280;15376;48.540;9.268;2023-05-29T09:44:45;97624.91;;;22.79;54.74
5283;BME280;15376;48.540;9.268;2023-05-29T09:47:21;97608.63;;;22.74;56.52
5283;BME280;15376;48.540;9.268;2023-05-29T09:49:46;97597.47;;;22.71;56.29
5283;BME280;15376;48.540;9.268;2023-05-29T09:52:13;97613.59;;;22.87;54.32
5283;BME280;15376;48.540;9.268;2023-05-29T09:54:42;97589.34;;;23.03;55.01
5283;BME280;15376;48.540;9.268;2023-05-29T09:57:16;97619.41;;;23.38;52.51
5283;BME280;15376;48.540;9.268;2023-05-29T09:59:43;97619.00;;;23.56;48.42
5283;BME280;15376;48.540;9.268;2023-05-29T10:02:11;97617.66;;;23.59;49.44
5283;BME280;15376;48.540;9.268;2023-05-29T10:04:37;97619.66;;;23.79;48.57
5283;BME280;15376;48.540;9.268;2023-05-29T10:07:26;97623.22;;;23.89;51.04
5283;BME280;15376;48.540;9.268;2023-05-29T10:09:59;97599.25;;;23.71;51.01
5283;BME280;15376;48.540;9.268;2023-05-29T10:12:26;97621.38;;;24.10;47.98
5283;BME280;15376;48.540;9.268;2023-05-29T10:14:54;97616.13;;;24.81;48.67
5283;BME280;15376;48.540;9.268;2023-05-29T10:17:25;97588.63;;;25.54;45.50
5283;BME280;15376;48.540;9.268;2023-05-29T10:19:51;97617.88;;;26.47;43.76
5283;BME280;15376;48.540;9.268;2023-05-29T10:22:20;97616.75;;;27.55;40.56
5283;BME280;15376;48.540;9.268;2023-05-29T10:24:48;97611.94;;;27.71;39.95
5283;BME280;15376;48.540;9.268;2023-05-29T10:27:13;97619.34;;;27.41;39.29
5283;BME280;15376;48.540;9.268;2023-05-29T10:32:29;97630.41;;;27.79;38.27
5283;BME280;15376;48.540;9.268;2023-05-29T10:35:17;97628.28;;;28.61;36.83
5283;BME280;15376;48.540;9.268;2023-05-29T10:37:53;97629.31;;;28.84;36.10
5283;BME280;15376;48.540;9.268;2023-05-29T10:40:26;97626.00;;;29.66;35.63
5283;BME280;15376;48.540;9.268;2023-05-29T10:42:52;97616.38;;;30.09;33.65
5283;BME280;15376;48.540;9.268;2023-05-29T10:50:37;97615.69;;;31.65;30.25
5283;BME280;15376;48.540;9.268;2023-05-29T10:53:03;97611.88;;;31.13;29.83
5283;BME280;15376;48.540;9.268;2023-05-29T10:55:34;97616.38;;;29.82;31.84
5283;BME280;15376;48.540;9.268;2023-05-29T10:58:08;97616.63;;;30.49;31.92
5283;BME280;15376;48.540;9.268;2023-05-29T11:00:34;97620.69;;;31.10;29.02
5283;BME280;15376;48.540;9.268;2023-05-29T11:03:07;97619.63;;;31.42;29.73
5283;BME280;15376;48.540;9.268;2023-05-29T11:05:32;97612.28;;;31.06;29.66
5283;BME280;15376;48.540;9.268;2023-05-29T11:07:59;97620.19;;;30.85;28.62
5283;BME280;15376;48.540;9.268;2023-05-29T11:10:45;97603.22;;;31.28;29.17
5283;BME280;15376;48.540;9.268;2023-05-29T11:13:31;97599.84;;;31.31;28.49
5283;BME280;15376;48.540;9.268;2023-05-29T11:18:29;97612.28;;;32.08;27.19
5283;BME280;15376;48.540;9.268;2023-05-29T11:20:57;97606.91;;;32.68;26.44
5283;BME280;15376;48.540;9.268;2023-05-29T11:23:31;97593.63;;;33.05;27.03
5283;BME280;15376;48.540;9.268;2023-05-29T11:25:57;97609.97;;;33.19;24.91
5283;BME280;15376;48.540;9.268;2023-05-29T11:28:24;97604.72;;;32.13;26.54
5283;BME280;15376;48.540;9.268;2023-05-29T11:30:50;97614.66;;;31.83;26.54
5283;BME280;15376;48.540;9.268;2023-05-29T11:33:26;97593.53;;;31.31;28.21
5283;BME280;15376;48.540;9.268;2023-05-29T11:35:59;97602.44;;;32.07;26.59
5283;BME280;15376;48.540;9.268;2023-05-29T11:38:26;97586.03;;;31.45;27.77
5283;BME280;15376;48.540;9.268;2023-05-29T11:40:53;97590.81;;;32.19;26.91
5283;BME280;15376;48.540;9.268;2023-05-29T11:43:19;97591.81;;;33.35;25.11
5283;BME280;15376;48.540;9.268;2023-05-29T11:45:44;97601.19;;;33.42;25.40
5283;BME280;15376;48.540;9.268;2023-05-29T11:48:10;97583.28;;;32.67;25.83
5283;BME280;15376;48.540;9.268;2023-05-29T11:50:36;97598.56;;;33.55;24.76
5283;BME280;15376;48.540;9.268;2023-05-29T11:53:02;97598.34;;;32.96;24.75
5283;BME280;15376;48.540;9.268;2023-05-29T11:55:28;97593.31;;;32.46;23.91
5283;BME280;15376;48.540;9.268;2023-05-29T11:57:58;97606.59;;;32.35;24.31
5283;BME280;15376;48.540;9.268;2023-05-29T12:00:24;97596.56;;;31.52;24.26
5283;BME280;15376;48.540;9.268;2023-05-29T12:02:51;97606.59;;;31.87;24.86
5283;BME280;15376;48.540;9.268;2023-05-29T12:05:17;97581.00;;;31.38;22.67
5283;BME280;15376;48.540;9.268;2023-05-29T12:07:54;97597.78;;;31.37;24.29
5283;BME280;15376;48.540;9.268;2023-05-29T12:10:23;97603.28;;;32.16;23.71
5283;BME280;15376;48.540;9.268;2023-05-29T12:15:18;97612.00;;;31.70;22.53
5283;BME280;15376;48.540;9.268;2023-05-29T12:17:44;97605.25;;;31.45;20.52
5283;BME280;15376;48.540;9.268;2023-05-29T12:20:11;97618.69;;;31.24;20.93
5283;BME280;15376;48.540;9.268;2023-05-29T12:22:38;97605.31;;;30.78;22.21
5283;BME280;15376;48.540;9.268;2023-05-29T12:27:41;97613.25;;;30.66;22.00
5283;BME280;15376;48.540;9.268;2023-05-29T12:30:12;97617.97;;;32.11;21.20
5283;BME280;15376;48.540;9.268;2023-05-29T12:32:42;97597.19;;;32.28;21.14
5283;BME280;15376;48.540;9.268;2023-05-29T12:35:18;97610.13;;;32.36;21.63
5283;BME280;15376;48.540;9.268;2023-05-29T12:37:47;97595.13;;;31.85;21.73
5283;BME280;15376;48.540;9.268;2023-05-29T12:40:21;97608.41;;;31.07;22.27
5283;BME280;15376;48.540;9.268;2023-05-29T12:42:47;97590.28;;;31.51;21.44
5283;BME280;15376;48.540;9.268;2023-05-29T12:45:13;97608.78;;;30.92;21.29
5283;BME280;15376;48.540;9.268;2023-05-29T12:48:06;97620.78;;;31.19;21.41
5283;BME280;15376;48.540;9.268;2023-05-29T12:50:37;97610.38;;;31.69;21.50
5283;BME280;15376;48.540;9.268;2023-05-29T12:55:31;97612.22;;;31.82;20.92
5283;BME280;15376;48.540;9.268;2023-05-29T12:58:04;97609.50;;;31.60;21.26
5283;BME280;15376;48.540;9.268;2023-05-29T13:00:30;97613.75;;;32.05;21.47
5283;BME280;15376;48.540;9.268;2023-05-29T13:02:56;97597.47;;;31.38;21.97
5283;BME280;15376;48.540;9.268;2023-05-29T13:05:21;97588.56;;;30.88;22.80
5283;BME280;15376;48.540;9.268;2023-05-29T13:07:51;97610.84;;;31.09;22.98
5283;BME280;15376;48.540;9.268;2023-05-29T13:10:17;97602.19;;;31.46;22.62
5283;BME280;15376;48.540;9.268;2023-05-29T13:12:43;97608.09;;;30.87;22.90
5283;BME280;15376;48.540;9.268;2023-05-29T13:15:10;97601.28;;;31.06;23.56
5283;BME280;15376;48.540;9.268;2023-05-29T13:17:37;97606.59;;;31.03;22.65
5283;BME280;15376;48.540;9.268;2023-05-29T13:20:02;97588.00;;;31.22;22.88
5283;BME280;15376;48.540;9.268;2023-05-29T13:22:32;97600.16;;;31.07;22.68
5283;BME280;15376;48.540;9.268;2023-05-29T13:24:58;97595.72;;;31.42;22.34
5283;BME280;15376;48.540;9.268;2023-05-29T13:27:24;97596.09;;;31.27;22.55
5283;BME280;15376;48.540;9.268;2023-05-29T13:29:51;97598.13;;;30.18;23.55
5283;BME280;15376;48.540;9.268;2023-05-29T13:32:16;97584.84;;;30.48;22.91
5283;BME280;15376;48.540;9.268;2023-05-29T13:34:42;97586.78;;;30.47;22.05
5283;BME280;15376;48.540;9.268;2023-05-29T13:37:07;97601.16;;;30.17;22.59